sensor_id;sensor_type;location;lat;lon;timestamp;P1;durP1;ratioP1;P2;durP2;ratioP2
4248;SDS011;8404;48.752;12.922;2022-07-06T00:01:43;2.35;;;2.08;;
4248;SDS011;8404;48.752;12.922;2022-07-06T00:04:12;3.03;;;2.08;;
4248;SDS011;8404;48.752;12.922;2022-07-06T00:06:42;4.10;;;2.45;;
4248;SDS011;8404;48.752;12.922;2022-07-06T00:09:10;5.55;;;2.58;;
4248;SDS011;8404;48.752;12.922;2022-07-06T00:11:38;3.40;;;1.80;;
4248;SDS011;8404;48.752;12.922;2022-07-06T00:14:07;3.28;;;2.03;;
4248;SDS011;8404;48.752;12.922;2022-07-06T00:16:35;2.90;;;2.10;;
4248;SDS011;8404;48.752;12.922;2022-07-06T00:19:03;3.75;;;2.28;;
4248;SDS011;8404;48.752;12.922;2022-07-06T00:21:32;2.97;;;2.17;;
4248;SDS011;8404;48.752;12.922;2022-07-06T00:24:01;2.60;;;2.22;;
4248;SDS011;8404;48.752;12.922;2022-07-06T00:26:30;3.28;;;1.95;;
4248;SDS011;8404;48.752;12.922;2022-07-06T00:28:58;2.33;;;2.13;;
4248;SDS011;8404;48.752;12.922;2022-07-06T00:31:26;3.97;;;2.67;;
4248;SDS011;8404;48.752;12.922;2022-07-06T00:33:55;5.75;;;2.75;;
4248;SDS011;8404;48.752;12.922;2022-07-06T00:36:23;2.90;;;2.45;;
4248;SDS011;8404;48.752;12.922;2022-07-06T00:38:52;3.45;;;2.70;;
4248;SDS011;8404;48.752;12.922;2022-07-06T00:41:21;3.70;;;2.90;;
4248;SDS011;8404;48.752;12.922;2022-07-06T00:43:50;3.50;;;2.38;;
4248;SDS011;8404;48.752;12.922;2022-07-06T00:46:22;3.53;;;2.38;;
4248;SDS011;8404;48.752;12.922;2022-07-06T00:48:55;6.05;;;2.88;;
4248;SDS011;8404;48.752;12.922;2022-07-06T00:51:24;4.80;;;2.60;;
4248;SDS011;8404;48.752;12.922;2022-07-06T00:53:58;2.95;;;2.38;;
4248;SDS011;8404;48.752;12.922;2022-07-06T00:56:29;4.47;;;2.78;;
4248;SDS011;8404;48.752;12.922;2022-07-06T00:58:59;3.85;;;2.50;;
4248;SDS011;8404;48.752;12.922;2022-07-06T01:01:28;3.75;;;2.30;;
4248;SDS011;8404;48.752;12.922;2022-07-06T01:03:57;2.60;;;2.30;;
4248;SDS011;8404;48.752;12.922;2022-07-06T01:06:25;3.08;;;2.38;;
4248;SDS011;8404;48.752;12.922;2022-07-06T01:08:54;2.72;;;2.40;;
4248;SDS011;8404;48.752;12.922;2022-07-06T01:11:23;3.67;;;2.53;;
4248;SDS011;8404;48.752;12.922;2022-07-06T01:13:52;3.38;;;2.85;;
4248;SDS011;8404;48.752;12.922;2022-07-06T01:16:22;3.60;;;2.65;;
4248;SDS011;8404;48.752;12.922;2022-07-06T01:18:51;7.20;;;2.40;;
4248;SDS011;8404;48.752;12.922;2022-07-06T01:21:21;3.08;;;2.60;;
4248;SDS011;8404;48.752;12.922;2022-07-06T01:23:49;5.65;;;3.10;;
4248;SDS011;8404;48.752;12.922;2022-07-06T01:26:19;3.50;;;2.63;;
4248;SDS011;8404;48.752;12.922;2022-07-06T01:28:48;4.32;;;2.80;;
4248;SDS011;8404;48.752;12.922;2022-07-06T01:31:19;2.80;;;2.30;;
4248;SDS011;8404;48.752;12.922;2022-07-06T01:33:50;3.40;;;3.13;;
4248;SDS011;8404;48.752;12.922;2022-07-06T01:36:20;3.88;;;2.30;;
4248;SDS011;8404;48.752;12.922;2022-07-06T01:38:50;3.15;;;2.78;;
4248;SDS011;8404;48.752;12.922;2022-07-06T01:41:20;4.18;;;2.97;;
4248;SDS011;8404;48.752;12.922;2022-07-06T01:43:48;3.72;;;2.28;;
4248;SDS011;8404;48.752;12.922;2022-07-06T01:46:17;2.95;;;2.60;;
4248;SDS011;8404;48.752;12.922;2022-07-06T01:48:46;3.08;;;2.67;;
4248;SDS011;8404;48.752;12.922;2022-07-06T01:53:46;5.65;;;2.97;;
4248;SDS011;8404;48.752;12.922;2022-07-06T01:56:16;5.05;;;2.67;;
4248;SDS011;8404;48.752;12.922;2022-07-06T01:58:49;3.08;;;2.72;;
4248;SDS011;8404;48.752;12.922;2022-07-06T02:01:20;3.10;;;2.13;;
4248;SDS011;8404;48.752;12.922;2022-07-06T02:03:48;2.90;;;2.65;;
4248;SDS011;8404;48.752;12.922;2022-07-06T02:06:17;3.95;;;2.72;;
4248;SDS011;8404;48.752;12.922;2022-07-06T02:08:48;3.55;;;2.63;;
4248;SDS011;8404;48.752;12.922;2022-07-06T02:11:18;2.80;;;2.40;;
4248;SDS011;8404;48.752;12.922;2022-07-06T02:13:47;4.30;;;2.40;;
4248;SDS011;8404;48.752;12.922;2022-07-06T02:16:15;4.38;;;2.75;;
4248;SDS011;8404;48.752;12.922;2022-07-06T02:18:45;3.20;;;2.20;;
4248;SDS011;8404;48.752;12.922;2022-07-06T02:21:13;4.57;;;2.50;;
4248;SDS011;8404;48.752;12.922;2022-07-06T02:23:42;3.28;;;2.17;;
4248;SDS011;8404;48.752;12.922;2022-07-06T02:26:11;4.15;;;2.03;;
4248;SDS011;8404;48.752;12.922;2022-07-06T02:28:40;2.90;;;2.53;;
4248;SDS011;8404;48.752;12.922;2022-07-06T02:31:09;3.63;;;2.50;;
4248;SDS011;8404;48.752;12.922;2022-07-06T02:33:40;4.30;;;2.70;;
4248;SDS011;8404;48.752;12.922;2022-07-06T02:36:10;3.63;;;2.70;;
4248;SDS011;8404;48.752;12.922;2022-07-06T02:38:38;3.38;;;2.90;;
4248;SDS011;8404;48.752;12.922;2022-07-06T02:41:06;3.95;;;2.60;;
4248;SDS011;8404;48.752;12.922;2022-07-06T02:43:37;4.18;;;2.70;;
4248;SDS011;8404;48.752;12.922;2022-07-06T02:46:06;3.53;;;2.92;;
4248;SDS011;8404;48.752;12.922;2022-07-06T02:48:35;3.65;;;2.83;;
4248;SDS011;8404;48.752;12.922;2022-07-06T02:51:04;4.47;;;2.55;;
4248;SDS011;8404;48.752;12.922;2022-07-06T02:53:33;5.30;;;2.80;;
4248;SDS011;8404;48.752;12.922;2022-07-06T02:56:01;4.93;;;2.80;;
4248;SDS011;8404;48.752;12.922;2022-07-06T02:58:32;4.63;;;2.60;;
4248;SDS011;8404;48.752;12.922;2022-07-06T03:01:01;3.05;;;2.63;;
4248;SDS011;8404;48.752;12.922;2022-07-06T03:03:30;4.28;;;2.60;;
4248;SDS011;8404;48.752;12.922;2022-07-06T03:05:59;6.55;;;3.17;;
4248;SDS011;8404;48.752;12.922;2022-07-06T03:08:29;4.88;;;3.40;;
4248;SDS011;8404;48.752;12.922;2022-07-06T03:10:58;3.88;;;2.58;;
4248;SDS011;8404;48.752;12.922;2022-07-06T03:13:28;4.40;;;3.05;;
4248;SDS011;8404;48.752;12.922;2022-07-06T03:15:58;5.80;;;2.90;;
4248;SDS011;8404;48.752;12.922;2022-07-06T03:18:29;5.20;;;2.92;;
4248;SDS011;8404;48.752;12.922;2022-07-06T03:20:59;6.03;;;3.10;;
4248;SDS011;8404;48.752;12.922;2022-07-06T03:23:30;3.95;;;2.88;;
4248;SDS011;8404;48.752;12.922;2022-07-06T03:25:59;4.50;;;2.97;;
4248;SDS011;8404;48.752;12.922;2022-07-06T03:28:29;6.95;;;3.55;;
4248;SDS011;8404;48.752;12.922;2022-07-06T03:30:58;4.88;;;3.28;;
4248;SDS011;8404;48.752;12.922;2022-07-06T03:33:27;4.45;;;2.70;;
4248;SDS011;8404;48.752;12.922;2022-07-06T03:35:56;4.57;;;3.20;;
4248;SDS011;8404;48.752;12.922;2022-07-06T03:38:25;5.32;;;3.35;;
4248;SDS011;8404;48.752;12.922;2022-07-06T03:40:53;4.07;;;2.80;;
4248;SDS011;8404;48.752;12.922;2022-07-06T03:43:22;4.30;;;3.03;;
4248;SDS011;8404;48.752;12.922;2022-07-06T03:45:52;3.60;;;3.17;;
4248;SDS011;8404;48.752;12.922;2022-07-06T03:48:21;4.18;;;3.60;;
4248;SDS011;8404;48.752;12.922;2022-07-06T03:50:51;4.40;;;3.53;;
4248;SDS011;8404;48.752;12.922;2022-07-06T03:53:20;4.00;;;3.70;;
4248;SDS011;8404;48.752;12.922;2022-07-06T03:55:49;9.98;;;4.78;;
4248;SDS011;8404;48.752;12.922;2022-07-06T03:58:33;5.40;;;3.58;;
4248;SDS011;8404;48.752;12.922;2022-07-06T04:01:02;5.75;;;3.67;;
4248;SDS011;8404;48.752;12.922;2022-07-06T04:03:30;5.43;;;3.50;;
4248;SDS011;8404;48.752;12.922;2022-07-06T04:06:01;4.97;;;3.70;;
4248;SDS011;8404;48.752;12.922;2022-07-06T04:08:31;8.35;;;3.50;;
4248;SDS011;8404;48.752;12.922;2022-07-06T04:11:00;10.70;;;4.70;;
4248;SDS011;8404;48.752;12.922;2022-07-06T04:13:29;6.00;;;3.30;;
4248;SDS011;8404;48.752;12.922;2022-07-06T04:15:57;4.22;;;3.83;;
4248;SDS011;8404;48.752;12.922;2022-07-06T04:18:26;4.85;;;4.05;;
4248;SDS011;8404;48.752;12.922;2022-07-06T04:20:55;4.43;;;4.03;;
4248;SDS011;8404;48.752;12.922;2022-07-06T04:23:26;6.70;;;4.38;;
4248;SDS011;8404;48.752;12.922;2022-07-06T04:25:56;6.60;;;4.35;;
4248;SDS011;8404;48.752;12.922;2022-07-06T04:28:27;7.15;;;5.10;;
4248;SDS011;8404;48.752;12.922;2022-07-06T04:30:56;5.30;;;4.80;;
4248;SDS011;8404;48.752;12.922;2022-07-06T04:33:24;5.63;;;5.03;;
4248;SDS011;8404;48.752;12.922;2022-07-06T04:35:53;5.57;;;5.07;;
4248;SDS011;8404;48.752;12.922;2022-07-06T04:38:27;6.10;;;5.53;;
4248;SDS011;8404;48.752;12.922;2022-07-06T04:41:02;8.00;;;6.57;;
4248;SDS011;8404;48.752;12.922;2022-07-06T04:43:31;6.65;;;6.05;;
4248;SDS011;8404;48.752;12.922;2022-07-06T04:45:59;6.30;;;5.60;;
4248;SDS011;8404;48.752;12.922;2022-07-06T04:48:30;7.45;;;6.00;;
4248;SDS011;8404;48.752;12.922;2022-07-06T04:51:03;6.35;;;5.68;;
4248;SDS011;8404;48.752;12.922;2022-07-06T04:53:32;5.65;;;4.80;;
4248;SDS011;8404;48.752;12.922;2022-07-06T04:56:02;4.47;;;4.07;;
4248;SDS011;8404;48.752;12.922;2022-07-06T04:58:33;6.82;;;4.43;;
4248;SDS011;8404;48.752;12.922;2022-07-06T05:01:02;5.60;;;4.97;;
4248;SDS011;8404;48.752;12.922;2022-07-06T05:03:31;6.40;;;4.65;;
4248;SDS011;8404;48.752;12.922;2022-07-06T05:06:03;5.00;;;4.50;;
4248;SDS011;8404;48.752;12.922;2022-07-06T05:08:33;5.43;;;5.00;;
4248;SDS011;8404;48.752;12.922;2022-07-06T05:11:02;6.80;;;5.18;;
4248;SDS011;8404;48.752;12.922;2022-07-06T05:13:31;5.70;;;5.20;;
4248;SDS011;8404;48.752;12.922;2022-07-06T05:16:00;4.97;;;4.50;;
4248;SDS011;8404;48.752;12.922;2022-07-06T05:18:29;6.95;;;5.25;;
4248;SDS011;8404;48.752;12.922;2022-07-06T05:20:58;5.40;;;4.47;;
4248;SDS011;8404;48.752;12.922;2022-07-06T05:23:27;4.78;;;4.13;;
4248;SDS011;8404;48.752;12.922;2022-07-06T05:25:56;5.95;;;4.10;;
4248;SDS011;8404;48.752;12.922;2022-07-06T05:28:26;5.43;;;3.47;;
4248;SDS011;8404;48.752;12.922;2022-07-06T05:31:02;4.78;;;4.10;;
4248;SDS011;8404;48.752;12.922;2022-07-06T05:33:31;4.45;;;4.03;;
4248;SDS011;8404;48.752;12.922;2022-07-06T05:36:00;6.25;;;3.60;;
4248;SDS011;8404;48.752;12.922;2022-07-06T05:38:28;5.00;;;3.47;;
4248;SDS011;8404;48.752;12.922;2022-07-06T05:40:57;4.60;;;3.10;;
4248;SDS011;8404;48.752;12.922;2022-07-06T05:43:27;6.45;;;3.20;;
4248;SDS011;8404;48.752;12.922;2022-07-06T05:45:58;4.60;;;3.13;;
4248;SDS011;8404;48.752;12.922;2022-07-06T05:48:29;3.03;;;2.72;;
4248;SDS011;8404;48.752;12.922;2022-07-06T05:51:15;3.83;;;2.80;;
4248;SDS011;8404;48.752;12.922;2022-07-06T05:53:45;3.03;;;2.58;;
4248;SDS011;8404;48.752;12.922;2022-07-06T05:56:14;3.17;;;2.30;;
4248;SDS011;8404;48.752;12.922;2022-07-06T05:58:44;3.97;;;2.70;;
4248;SDS011;8404;48.752;12.922;2022-07-06T06:01:12;3.15;;;2.67;;
4248;SDS011;8404;48.752;12.922;2022-07-06T06:03:46;6.75;;;2.85;;
4248;SDS011;8404;48.752;12.922;2022-07-06T06:06:14;6.30;;;3.35;;
4248;SDS011;8404;48.752;12.922;2022-07-06T06:08:43;3.72;;;2.33;;
4248;SDS011;8404;48.752;12.922;2022-07-06T06:11:11;4.70;;;2.80;;
4248;SDS011;8404;48.752;12.922;2022-07-06T06:13:40;3.40;;;2.45;;
4248;SDS011;8404;48.752;12.922;2022-07-06T06:16:10;5.13;;;2.83;;
4248;SDS011;8404;48.752;12.922;2022-07-06T06:18:39;5.93;;;2.78;;
4248;SDS011;8404;48.752;12.922;2022-07-06T06:21:08;5.13;;;3.17;;
4248;SDS011;8404;48.752;12.922;2022-07-06T06:23:37;4.75;;;2.97;;
4248;SDS011;8404;48.752;12.922;2022-07-06T06:26:06;2.90;;;2.38;;
4248;SDS011;8404;48.752;12.922;2022-07-06T06:28:34;5.30;;;2.55;;
4248;SDS011;8404;48.752;12.922;2022-07-06T06:31:04;4.80;;;2.45;;
4248;SDS011;8404;48.752;12.922;2022-07-06T06:33:33;3.00;;;2.70;;
4248;SDS011;8404;48.752;12.922;2022-07-06T06:36:02;4.38;;;2.08;;
4248;SDS011;8404;48.752;12.922;2022-07-06T06:38:31;6.63;;;2.67;;
4248;SDS011;8404;48.752;12.922;2022-07-06T06:40:59;4.47;;;2.50;;
4248;SDS011;8404;48.752;12.922;2022-07-06T06:43:29;4.45;;;2.53;;
4248;SDS011;8404;48.752;12.922;2022-07-06T06:46:12;3.72;;;2.40;;
4248;SDS011;8404;48.752;12.922;2022-07-06T06:48:42;6.00;;;2.90;;
4248;SDS011;8404;48.752;12.922;2022-07-06T06:51:10;3.55;;;2.60;;
4248;SDS011;8404;48.752;12.922;2022-07-06T06:53:38;2.97;;;2.47;;
4248;SDS011;8404;48.752;12.922;2022-07-06T06:56:07;4.50;;;3.72;;
4248;SDS011;8404;48.752;12.922;2022-07-06T06:58:36;5.38;;;2.88;;
4248;SDS011;8404;48.752;12.922;2022-07-06T07:01:24;3.75;;;2.65;;
4248;SDS011;8404;48.752;12.922;2022-07-06T07:03:54;3.80;;;2.60;;
4248;SDS011;8404;48.752;12.922;2022-07-06T07:06:23;4.13;;;2.60;;
4248;SDS011;8404;48.752;12.922;2022-07-06T07:08:51;3.35;;;2.80;;
4248;SDS011;8404;48.752;12.922;2022-07-06T07:11:21;3.00;;;2.60;;
4248;SDS011;8404;48.752;12.922;2022-07-06T07:13:50;4.47;;;2.90;;
4248;SDS011;8404;48.752;12.922;2022-07-06T07:16:18;3.63;;;2.63;;
4248;SDS011;8404;48.752;12.922;2022-07-06T07:18:46;4.82;;;2.60;;
4248;SDS011;8404;48.752;12.922;2022-07-06T07:21:16;4.00;;;2.78;;
4248;SDS011;8404;48.752;12.922;2022-07-06T07:23:44;3.95;;;2.65;;
4248;SDS011;8404;48.752;12.922;2022-07-06T07:26:13;4.20;;;3.05;;
4248;SDS011;8404;48.752;12.922;2022-07-06T07:28:41;3.88;;;2.58;;
4248;SDS011;8404;48.752;12.922;2022-07-06T07:31:09;2.70;;;2.17;;
4248;SDS011;8404;48.752;12.922;2022-07-06T07:33:38;3.92;;;3.00;;
4248;SDS011;8404;48.752;12.922;2022-07-06T07:36:06;4.50;;;2.88;;
4248;SDS011;8404;48.752;12.922;2022-07-06T07:38:36;2.60;;;2.28;;
4248;SDS011;8404;48.752;12.922;2022-07-06T07:41:05;3.75;;;2.80;;
4248;SDS011;8404;48.752;12.922;2022-07-06T07:43:33;7.00;;;3.35;;
4248;SDS011;8404;48.752;12.922;2022-07-06T07:46:01;3.85;;;2.70;;
4248;SDS011;8404;48.752;12.922;2022-07-06T07:48:29;4.00;;;2.85;;
4248;SDS011;8404;48.752;12.922;2022-07-06T07:50:58;2.58;;;2.30;;
4248;SDS011;8404;48.752;12.922;2022-07-06T07:53:26;3.22;;;2.25;;
4248;SDS011;8404;48.752;12.922;2022-07-06T07:55:56;4.43;;;2.30;;
4248;SDS011;8404;48.752;12.922;2022-07-06T07:58:24;3.83;;;2.60;;
4248;SDS011;8404;48.752;12.922;2022-07-06T08:00:55;2.42;;;2.22;;
4248;SDS011;8404;48.752;12.922;2022-07-06T08:03:23;4.43;;;2.40;;
4248;SDS011;8404;48.752;12.922;2022-07-06T08:05:52;2.63;;;1.98;;
4248;SDS011;8404;48.752;12.922;2022-07-06T08:08:20;3.55;;;2.40;;
4248;SDS011;8404;48.752;12.922;2022-07-06T08:10:50;3.78;;;2.53;;
4248;SDS011;8404;48.752;12.922;2022-07-06T08:13:39;3.38;;;2.03;;
4248;SDS011;8404;48.752;12.922;2022-07-06T08:16:08;2.85;;;1.92;;
4248;SDS011;8404;48.752;12.922;2022-07-06T08:18:37;3.25;;;2.25;;
4248;SDS011;8404;48.752;12.922;2022-07-06T08:21:06;3.42;;;2.47;;
4248;SDS011;8404;48.752;12.922;2022-07-06T08:23:51;4.43;;;2.35;;
4248;SDS011;8404;48.752;12.922;2022-07-06T08:26:20;6.53;;;2.92;;
4248;SDS011;8404;48.752;12.922;2022-07-06T08:28:51;4.75;;;2.45;;
4248;SDS011;8404;48.752;12.922;2022-07-06T08:31:19;3.10;;;2.42;;
4248;SDS011;8404;48.752;12.922;2022-07-06T08:34:08;4.10;;;2.45;;
4248;SDS011;8404;48.752;12.922;2022-07-06T08:36:36;2.25;;;2.05;;
4248;SDS011;8404;48.752;12.922;2022-07-06T08:39:05;4.50;;;2.78;;
4248;SDS011;8404;48.752;12.922;2022-07-06T08:41:34;3.13;;;2.17;;
4248;SDS011;8404;48.752;12.922;2022-07-06T08:44:05;3.15;;;1.98;;
4248;SDS011;8404;48.752;12.922;2022-07-06T08:46:35;3.60;;;2.30;;
4248;SDS011;8404;48.752;12.922;2022-07-06T08:49:06;5.38;;;2.20;;
4248;SDS011;8404;48.752;12.922;2022-07-06T08:51:35;3.35;;;2.20;;
4248;SDS011;8404;48.752;12.922;2022-07-06T08:54:05;3.75;;;2.53;;
4248;SDS011;8404;48.752;12.922;2022-07-06T08:56:34;4.22;;;2.40;;
4248;SDS011;8404;48.752;12.922;2022-07-06T08:59:04;11.40;;;3.25;;
4248;SDS011;8404;48.752;12.922;2022-07-06T09:01:35;3.05;;;2.30;;
4248;SDS011;8404;48.752;12.922;2022-07-06T09:04:05;4.55;;;2.45;;
4248;SDS011;8404;48.752;12.922;2022-07-06T09:06:35;4.63;;;2.30;;
4248;SDS011;8404;48.752;12.922;2022-07-06T09:09:05;3.90;;;2.40;;
4248;SDS011;8404;48.752;12.922;2022-07-06T09:11:34;3.58;;;2.50;;
4248;SDS011;8404;48.752;12.922;2022-07-06T09:14:05;5.15;;;2.45;;
4248;SDS011;8404;48.752;12.922;2022-07-06T09:16:34;4.32;;;3.38;;
4248;SDS011;8404;48.752;12.922;2022-07-06T09:19:05;3.75;;;2.50;;
4248;SDS011;8404;48.752;12.922;2022-07-06T09:21:34;3.45;;;2.60;;
4248;SDS011;8404;48.752;12.922;2022-07-06T09:24:06;2.33;;;2.05;;
4248;SDS011;8404;48.752;12.922;2022-07-06T09:26:36;3.10;;;2.33;;
4248;SDS011;8404;48.752;12.922;2022-07-06T09:29:06;4.93;;;2.75;;
4248;SDS011;8404;48.752;12.922;2022-07-06T09:31:35;5.43;;;2.80;;
4248;SDS011;8404;48.752;12.922;2022-07-06T09:34:04;4.55;;;2.40;;
4248;SDS011;8404;48.752;12.922;2022-07-06T09:36:38;3.17;;;2.35;;
4248;SDS011;8404;48.752;12.922;2022-07-06T09:39:16;5.35;;;2.70;;
4248;SDS011;8404;48.752;12.922;2022-07-06T09:41:47;5.30;;;3.10;;
4248;SDS011;8404;48.752;12.922;2022-07-06T09:44:24;4.63;;;2.60;;
4248;SDS011;8404;48.752;12.922;2022-07-06T09:46:54;2.97;;;2.17;;
4248;SDS011;8404;48.752;12.922;2022-07-06T09:49:24;3.50;;;2.50;;
4248;SDS011;8404;48.752;12.922;2022-07-06T09:51:54;2.95;;;2.22;;
4248;SDS011;8404;48.752;12.922;2022-07-06T09:54:24;2.25;;;1.95;;
4248;SDS011;8404;48.752;12.922;2022-07-06T09:56:53;3.22;;;2.20;;
4248;SDS011;8404;48.752;12.922;2022-07-06T09:59:24;4.35;;;2.80;;
4248;SDS011;8404;48.752;12.922;2022-07-06T10:01:54;3.38;;;1.80;;
4248;SDS011;8404;48.752;12.922;2022-07-06T10:04:24;4.05;;;1.92;;
4248;SDS011;8404;48.752;12.922;2022-07-06T10:06:54;4.40;;;2.00;;
4248;SDS011;8404;48.752;12.922;2022-07-06T10:09:24;3.97;;;1.85;;
4248;SDS011;8404;48.752;12.922;2022-07-06T10:11:57;1.92;;;1.65;;
4248;SDS011;8404;48.752;12.922;2022-07-06T10:14:28;2.75;;;1.45;;
4248;SDS011;8404;48.752;12.922;2022-07-06T10:16:58;3.50;;;1.75;;
4248;SDS011;8404;48.752;12.922;2022-07-06T10:19:28;3.83;;;2.17;;
4248;SDS011;8404;48.752;12.922;2022-07-06T10:21:58;5.82;;;1.90;;
4248;SDS011;8404;48.752;12.922;2022-07-06T10:24:28;5.57;;;1.92;;
4248;SDS011;8404;48.752;12.922;2022-07-06T10:27:01;3.28;;;1.83;;
4248;SDS011;8404;48.752;12.922;2022-07-06T10:29:31;2.95;;;1.77;;
4248;SDS011;8404;48.752;12.922;2022-07-06T10:32:00;2.90;;;1.98;;
4248;SDS011;8404;48.752;12.922;2022-07-06T10:34:29;2.88;;;1.90;;
4248;SDS011;8404;48.752;12.922;2022-07-06T10:36:58;3.33;;;1.90;;
4248;SDS011;8404;48.752;12.922;2022-07-06T10:39:33;5.10;;;2.08;;
4248;SDS011;8404;48.752;12.922;2022-07-06T10:45:09;3.28;;;1.83;;
4248;SDS011;8404;48.752;12.922;2022-07-06T10:47:39;3.15;;;1.70;;
4248;SDS011;8404;48.752;12.922;2022-07-06T10:50:08;3.38;;;2.03;;
4248;SDS011;8404;48.752;12.922;2022-07-06T10:52:49;5.85;;;1.92;;
4248;SDS011;8404;48.752;12.922;2022-07-06T10:55:28;2.65;;;1.70;;
4248;SDS011;8404;48.752;12.922;2022-07-06T10:57:57;3.65;;;2.00;;
4248;SDS011;8404;48.752;12.922;2022-07-06T11:03:30;2.35;;;1.95;;
4248;SDS011;8404;48.752;12.922;2022-07-06T11:06:00;3.13;;;1.60;;
4248;SDS011;8404;48.752;12.922;2022-07-06T11:11:15;2.70;;;1.83;;
4248;SDS011;8404;48.752;12.922;2022-07-06T11:13:47;2.10;;;1.40;;
4248;SDS011;8404;48.752;12.922;2022-07-06T11:16:17;2.83;;;1.80;;
4248;SDS011;8404;48.752;12.922;2022-07-06T11:18:48;2.42;;;1.70;;
4248;SDS011;8404;48.752;12.922;2022-07-06T11:21:18;4.32;;;2.00;;
4248;SDS011;8404;48.752;12.922;2022-07-06T11:23:48;1.75;;;1.40;;
4248;SDS011;8404;48.752;12.922;2022-07-06T11:26:18;2.20;;;1.65;;
4248;SDS011;8404;48.752;12.922;2022-07-06T11:28:46;1.83;;;1.33;;
4248;SDS011;8404;48.752;12.922;2022-07-06T11:31:16;3.38;;;1.50;;
4248;SDS011;8404;48.752;12.922;2022-07-06T11:33:44;2.20;;;1.65;;
4248;SDS011;8404;48.752;12.922;2022-07-06T11:36:16;3.95;;;1.73;;
4248;SDS011;8404;48.752;12.922;2022-07-06T11:38:46;1.48;;;1.15;;
4248;SDS011;8404;48.752;12.922;2022-07-06T11:41:16;2.38;;;1.25;;
4248;SDS011;8404;48.752;12.922;2022-07-06T11:43:46;2.28;;;1.42;;
4248;SDS011;8404;48.752;12.922;2022-07-06T11:46:21;3.67;;;1.45;;
4248;SDS011;8404;48.752;12.922;2022-07-06T11:48:51;1.88;;;1.13;;
4248;SDS011;8404;48.752;12.922;2022-07-06T11:51:23;2.00;;;1.50;;
4248;SDS011;8404;48.752;12.922;2022-07-06T11:53:54;1.85;;;1.20;;
4248;SDS011;8404;48.752;12.922;2022-07-06T11:56:25;2.20;;;1.23;;
4248;SDS011;8404;48.752;12.922;2022-07-06T11:58:54;2.60;;;1.30;;
4248;SDS011;8404;48.752;12.922;2022-07-06T12:01:24;2.78;;;1.60;;
4248;SDS011;8404;48.752;12.922;2022-07-06T12:03:56;3.13;;;1.30;;
4248;SDS011;8404;48.752;12.922;2022-07-06T12:06:28;2.60;;;1.70;;
4248;SDS011;8404;48.752;12.922;2022-07-06T12:08:57;3.95;;;1.58;;
4248;SDS011;8404;48.752;12.922;2022-07-06T12:11:27;2.10;;;1.48;;
4248;SDS011;8404;48.752;12.922;2022-07-06T12:13:57;3.40;;;1.60;;
4248;SDS011;8404;48.752;12.922;2022-07-06T12:16:30;5.25;;;1.70;;
4248;SDS011;8404;48.752;12.922;2022-07-06T12:19:01;3.20;;;1.30;;
4248;SDS011;8404;48.752;12.922;2022-07-06T12:21:34;1.77;;;1.30;;
4248;SDS011;8404;48.752;12.922;2022-07-06T12:24:05;1.95;;;1.52;;
4248;SDS011;8404;48.752;12.922;2022-07-06T12:26:38;2.15;;;1.33;;
4248;SDS011;8404;48.752;12.922;2022-07-06T12:29:08;2.13;;;1.48;;
4248;SDS011;8404;48.752;12.922;2022-07-06T12:31:40;1.98;;;1.48;;
4248;SDS011;8404;48.752;12.922;2022-07-06T12:34:13;2.17;;;1.35;;
4248;SDS011;8404;48.752;12.922;2022-07-06T12:36:45;2.40;;;1.30;;
4248;SDS011;8404;48.752;12.922;2022-07-06T12:39:15;3.35;;;2.03;;
4248;SDS011;8404;48.752;12.922;2022-07-06T12:41:47;3.33;;;1.10;;
4248;SDS011;8404;48.752;12.922;2022-07-06T12:44:17;2.45;;;1.40;;
4248;SDS011;8404;48.752;12.922;2022-07-06T12:46:48;3.33;;;1.40;;
4248;SDS011;8404;48.752;12.922;2022-07-06T12:49:19;4.55;;;1.60;;
4248;SDS011;8404;48.752;12.922;2022-07-06T12:51:51;3.80;;;1.38;;
4248;SDS011;8404;48.752;12.922;2022-07-06T12:54:21;2.63;;;1.52;;
4248;SDS011;8404;48.752;12.922;2022-07-06T12:56:58;2.20;;;1.27;;
4248;SDS011;8404;48.752;12.922;2022-07-06T12:59:34;2.22;;;1.27;;
4248;SDS011;8404;48.752;12.922;2022-07-06T13:02:05;1.98;;;1.13;;
4248;SDS011;8404;48.752;12.922;2022-07-06T13:04:36;1.60;;;1.10;;
4248;SDS011;8404;48.752;12.922;2022-07-06T13:07:06;2.35;;;1.10;;
4248;SDS011;8404;48.752;12.922;2022-07-06T13:09:46;2.88;;;1.00;;
4248;SDS011;8404;48.752;12.922;2022-07-06T13:12:14;3.15;;;1.10;;
4248;SDS011;8404;48.752;12.922;2022-07-06T13:14:42;2.17;;;1.20;;
4248;SDS011;8404;48.752;12.922;2022-07-06T13:17:11;1.75;;;0.85;;
4248;SDS011;8404;48.752;12.922;2022-07-06T13:19:39;2.30;;;1.20;;
4248;SDS011;8404;48.752;12.922;2022-07-06T13:22:09;3.97;;;1.00;;
4248;SDS011;8404;48.752;12.922;2022-07-06T13:24:37;1.52;;;1.10;;
4248;SDS011;8404;48.752;12.922;2022-07-06T13:27:06;1.90;;;1.10;;
4248;SDS011;8404;48.752;12.922;2022-07-06T13:29:34;1.55;;;1.00;;
4248;SDS011;8404;48.752;12.922;2022-07-06T13:32:04;1.55;;;0.82;;
4248;SDS011;8404;48.752;12.922;2022-07-06T13:34:33;2.03;;;1.00;;
4248;SDS011;8404;48.752;12.922;2022-07-06T13:37:03;2.35;;;1.10;;
4248;SDS011;8404;48.752;12.922;2022-07-06T13:39:33;2.65;;;1.25;;
4248;SDS011;8404;48.752;12.922;2022-07-06T13:42:02;1.38;;;0.80;;
4248;SDS011;8404;48.752;12.922;2022-07-06T13:44:31;1.33;;;0.90;;
4248;SDS011;8404;48.752;12.922;2022-07-06T13:46:59;1.63;;;1.00;;
4248;SDS011;8404;48.752;12.922;2022-07-06T13:49:28;3.00;;;1.25;;
4248;SDS011;8404;48.752;12.922;2022-07-06T13:51:58;2.10;;;0.98;;
4248;SDS011;8404;48.752;12.922;2022-07-06T13:54:30;1.80;;;0.93;;
4248;SDS011;8404;48.752;12.922;2022-07-06T13:57:02;1.40;;;0.90;;
4248;SDS011;8404;48.752;12.922;2022-07-06T13:59:32;1.35;;;0.82;;
4248;SDS011;8404;48.752;12.922;2022-07-06T14:02:00;2.60;;;1.33;;
4248;SDS011;8404;48.752;12.922;2022-07-06T14:04:29;1.60;;;1.00;;
4248;SDS011;8404;48.752;12.922;2022-07-06T14:06:57;6.35;;;1.30;;
4248;SDS011;8404;48.752;12.922;2022-07-06T14:09:27;1.60;;;1.10;;
4248;SDS011;8404;48.752;12.922;2022-07-06T14:11:55;2.15;;;1.00;;
4248;SDS011;8404;48.752;12.922;2022-07-06T14:14:25;2.10;;;0.85;;
4248;SDS011;8404;48.752;12.922;2022-07-06T14:16:53;0.88;;;0.60;;
4248;SDS011;8404;48.752;12.922;2022-07-06T14:19:22;2.13;;;0.65;;
4248;SDS011;8404;48.752;12.922;2022-07-06T14:21:52;1.77;;;0.50;;
4248;SDS011;8404;48.752;12.922;2022-07-06T14:24:20;4.63;;;1.00;;
4248;SDS011;8404;48.752;12.922;2022-07-06T14:26:56;1.83;;;1.05;;
4248;SDS011;8404;48.752;12.922;2022-07-06T14:29:26;1.38;;;0.80;;
4248;SDS011;8404;48.752;12.922;2022-07-06T14:31:54;1.63;;;0.90;;
4248;SDS011;8404;48.752;12.922;2022-07-06T14:34:23;2.72;;;0.70;;
4248;SDS011;8404;48.752;12.922;2022-07-06T14:36:51;1.02;;;0.63;;
4248;SDS011;8404;48.752;12.922;2022-07-06T14:39:20;1.50;;;0.70;;
4248;SDS011;8404;48.752;12.922;2022-07-06T14:41:49;1.90;;;0.60;;
4248;SDS011;8404;48.752;12.922;2022-07-06T14:44:17;1.77;;;0.90;;
4248;SDS011;8404;48.752;12.922;2022-07-06T14:46:47;3.22;;;0.90;;
4248;SDS011;8404;48.752;12.922;2022-07-06T14:49:15;1.13;;;0.68;;
4248;SDS011;8404;48.752;12.922;2022-07-06T14:51:46;3.50;;;0.85;;
4248;SDS011;8404;48.752;12.922;2022-07-06T14:54:15;2.60;;;0.93;;
4248;SDS011;8404;48.752;12.922;2022-07-06T14:56:44;2.00;;;0.90;;
4248;SDS011;8404;48.752;12.922;2022-07-06T14:59:12;2.15;;;0.82;;
4248;SDS011;8404;48.752;12.922;2022-07-06T15:01:52;1.70;;;0.70;;
4248;SDS011;8404;48.752;12.922;2022-07-06T15:04:21;1.25;;;0.88;;
4248;SDS011;8404;48.752;12.922;2022-07-06T15:06:50;1.48;;;0.88;;
4248;SDS011;8404;48.752;12.922;2022-07-06T15:09:22;1.25;;;0.75;;
4248;SDS011;8404;48.752;12.922;2022-07-06T15:11:52;2.25;;;0.80;;
4248;SDS011;8404;48.752;12.922;2022-07-06T15:14:20;1.58;;;0.75;;
4248;SDS011;8404;48.752;12.922;2022-07-06T15:16:49;1.10;;;0.80;;
4248;SDS011;8404;48.752;12.922;2022-07-06T15:19:20;1.63;;;0.65;;
4248;SDS011;8404;48.752;12.922;2022-07-06T15:21:49;1.67;;;0.90;;
4248;SDS011;8404;48.752;12.922;2022-07-06T15:24:17;0.95;;;0.60;;
4248;SDS011;8404;48.752;12.922;2022-07-06T15:26:45;1.42;;;0.60;;
4248;SDS011;8404;48.752;12.922;2022-07-06T15:29:14;1.17;;;0.70;;